sensor_id;sensor_type;location;lat;lon;timestamp;P1;durP1;ratioP1;P2;durP2;ratioP2
41623;SDS011;27319;50.306;18.926;2023-07-24T00:02:47;4.68;;;4.07;;
41623;SDS011;27319;50.306;18.926;2023-07-24T00:05:48;5.68;;;4.57;;
41623;SDS011;27319;50.306;18.926;2023-07-24T00:08:48;7.32;;;4.65;;
41623;SDS011;27319;50.306;18.926;2023-07-24T00:11:49;7.30;;;4.70;;
41623;SDS011;27319;50.306;18.926;2023-07-24T00:14:58;8.32;;;4.72;;
41623;SDS011;27319;50.306;18.926;2023-07-24T00:17:59;5.57;;;4.28;;
41623;SDS011;27319;50.306;18.926;2023-07-24T00:20:59;5.65;;;4.00;;
41623;SDS011;27319;50.306;18.926;2023-07-24T00:24:00;6.10;;;4.75;;
41623;SDS011;27319;50.306;18.926;2023-07-24T00:27:01;6.70;;;4.68;;
41623;SDS011;27319;50.306;18.926;2023-07-24T00:30:03;6.72;;;4.22;;
41623;SDS011;27319;50.306;18.926;2023-07-24T00:33:04;6.15;;;4.20;;
41623;SDS011;27319;50.306;18.926;2023-07-24T00:36:05;6.05;;;4.18;;
41623;SDS011;27319;50.306;18.926;2023-07-24T00:39:06;5.25;;;3.72;;
41623;SDS011;27319;50.306;18.926;2023-07-24T00:42:07;6.72;;;4.03;;
41623;SDS011;27319;50.306;18.926;2023-07-24T00:45:08;5.15;;;3.85;;
41623;SDS011;27319;50.306;18.926;2023-07-24T00:48:09;6.13;;;3.90;;
41623;SDS011;27319;50.306;18.926;2023-07-24T00:51:10;5.38;;;4.10;;
41623;SDS011;27319;50.306;18.926;2023-07-24T00:54:11;5.35;;;3.67;;
41623;SDS011;27319;50.306;18.926;2023-07-24T00:57:16;5.47;;;3.70;;
41623;SDS011;27319;50.306;18.926;2023-07-24T01:03:31;5.70;;;3.60;;
41623;SDS011;27319;50.306;18.926;2023-07-24T01:06:34;4.65;;;3.42;;
41623;SDS011;27319;50.306;18.926;2023-07-24T01:09:34;4.05;;;3.17;;
41623;SDS011;27319;50.306;18.926;2023-07-24T01:12:39;3.92;;;3.35;;
41623;SDS011;27319;50.306;18.926;2023-07-24T01:16:03;6.13;;;3.55;;
41623;SDS011;27319;50.306;18.926;2023-07-24T01:20:01;4.70;;;3.35;;
41623;SDS011;27319;50.306;18.926;2023-07-24T01:24:14;5.80;;;3.58;;
41623;SDS011;27319;50.306;18.926;2023-07-24T01:28:18;4.97;;;3.60;;
41623;SDS011;27319;50.306;18.926;2023-07-24T01:32:19;5.13;;;3.60;;
41623;SDS011;27319;50.306;18.926;2023-07-24T01:35:19;4.93;;;3.55;;
41623;SDS011;27319;50.306;18.926;2023-07-24T01:38:21;5.50;;;3.70;;
41623;SDS011;27319;50.306;18.926;2023-07-24T01:42:17;6.95;;;3.42;;
41623;SDS011;27319;50.306;18.926;2023-07-24T01:45:18;5.18;;;3.40;;
41623;SDS011;27319;50.306;18.926;2023-07-24T01:48:20;4.88;;;3.03;;
41623;SDS011;27319;50.306;18.926;2023-07-24T01:52:20;3.92;;;2.92;;
41623;SDS011;27319;50.306;18.926;2023-07-24T01:56:21;6.55;;;3.20;;
41623;SDS011;27319;50.306;18.926;2023-07-24T02:00:21;4.78;;;3.08;;
41623;SDS011;27319;50.306;18.926;2023-07-24T02:03:22;6.38;;;3.33;;
41623;SDS011;27319;50.306;18.926;2023-07-24T02:06:23;4.70;;;3.20;;
41623;SDS011;27319;50.306;18.926;2023-07-24T02:09:24;4.68;;;3.45;;
41623;SDS011;27319;50.306;18.926;2023-07-24T02:12:25;5.82;;;3.85;;
41623;SDS011;27319;50.306;18.926;2023-07-24T02:16:25;6.93;;;3.30;;
41623;SDS011;27319;50.306;18.926;2023-07-24T02:19:50;4.50;;;3.20;;
41623;SDS011;27319;50.306;18.926;2023-07-24T02:23:51;6.75;;;3.45;;
41623;SDS011;27319;50.306;18.926;2023-07-24T02:27:51;5.72;;;3.33;;
41623;SDS011;27319;50.306;18.926;2023-07-24T02:31:56;5.13;;;3.60;;
41623;SDS011;27319;50.306;18.926;2023-07-24T02:35:23;5.10;;;3.60;;
41623;SDS011;27319;50.306;18.926;2023-07-24T02:38:25;5.18;;;3.60;;
41623;SDS011;27319;50.306;18.926;2023-07-24T02:42:25;6.28;;;3.45;;
41623;SDS011;27319;50.306;18.926;2023-07-24T02:46:26;5.93;;;4.07;;
41623;SDS011;27319;50.306;18.926;2023-07-24T02:50:27;8.20;;;4.40;;
41623;SDS011;27319;50.306;18.926;2023-07-24T02:54:28;5.80;;;4.38;;
41623;SDS011;27319;50.306;18.926;2023-07-24T02:58:28;5.45;;;3.80;;
41623;SDS011;27319;50.306;18.926;2023-07-24T03:02:29;6.15;;;4.20;;
41623;SDS011;27319;50.306;18.926;2023-07-24T03:05:30;5.18;;;3.60;;
41623;SDS011;27319;50.306;18.926;2023-07-24T03:09:31;5.63;;;3.63;;
41623;SDS011;27319;50.306;18.926;2023-07-24T03:13:31;5.57;;;4.00;;
41623;SDS011;27319;50.306;18.926;2023-07-24T03:17:32;5.95;;;4.00;;
41623;SDS011;27319;50.306;18.926;2023-07-24T03:21:33;7.65;;;3.88;;
41623;SDS011;27319;50.306;18.926;2023-07-24T03:25:34;5.50;;;3.53;;
41623;SDS011;27319;50.306;18.926;2023-07-24T03:29:35;8.70;;;3.90;;
41623;SDS011;27319;50.306;18.926;2023-07-24T03:33:31;5.93;;;4.13;;
41623;SDS011;27319;50.306;18.926;2023-07-24T03:36:31;5.28;;;3.88;;
41623;SDS011;27319;50.306;18.926;2023-07-24T03:40:32;9.88;;;4.30;;
41623;SDS011;27319;50.306;18.926;2023-07-24T03:44:33;6.18;;;3.83;;
41623;SDS011;27319;50.306;18.926;2023-07-24T03:48:34;7.22;;;4.45;;
41623;SDS011;27319;50.306;18.926;2023-07-24T03:51:37;5.50;;;3.92;;
41623;SDS011;27319;50.306;18.926;2023-07-24T03:55:38;5.60;;;4.05;;
41623;SDS011;27319;50.306;18.926;2023-07-24T03:59:39;5.78;;;3.83;;
41623;SDS011;27319;50.306;18.926;2023-07-24T04:03:40;6.10;;;3.78;;
41623;SDS011;27319;50.306;18.926;2023-07-24T04:07:40;7.03;;;4.40;;
41623;SDS011;27319;50.306;18.926;2023-07-24T04:11:44;7.50;;;4.80;;
41623;SDS011;27319;50.306;18.926;2023-07-24T04:15:45;8.68;;;4.90;;
41623;SDS011;27319;50.306;18.926;2023-07-24T04:19:46;5.85;;;3.95;;
41623;SDS011;27319;50.306;18.926;2023-07-24T04:23:47;5.82;;;4.18;;
41623;SDS011;27319;50.306;18.926;2023-07-24T04:27:48;6.90;;;4.13;;
41623;SDS011;27319;50.306;18.926;2023-07-24T04:31:29;5.13;;;3.60;;
41623;SDS011;27319;50.306;18.926;2023-07-24T04:35:30;6.93;;;5.03;;
41623;SDS011;27319;50.306;18.926;2023-07-24T04:39:11;6.22;;;4.15;;
41623;SDS011;27319;50.306;18.926;2023-07-24T04:42:11;6.53;;;4.47;;
41623;SDS011;27319;50.306;18.926;2023-07-24T04:46:12;6.85;;;4.55;;
41623;SDS011;27319;50.306;18.926;2023-07-24T04:50:13;6.95;;;4.25;;
41623;SDS011;27319;50.306;18.926;2023-07-24T04:53:14;6.43;;;4.15;;
41623;SDS011;27319;50.306;18.926;2023-07-24T04:56:15;5.38;;;4.38;;
41623;SDS011;27319;50.306;18.926;2023-07-24T04:59:15;6.32;;;4.75;;
41623;SDS011;27319;50.306;18.926;2023-07-24T05:02:16;8.77;;;5.22;;
41623;SDS011;27319;50.306;18.926;2023-07-24T05:05:19;8.20;;;4.75;;
41623;SDS011;27319;50.306;18.926;2023-07-24T05:08:20;5.88;;;4.35;;
41623;SDS011;27319;50.306;18.926;2023-07-24T05:11:21;9.40;;;4.22;;
41623;SDS011;27319;50.306;18.926;2023-07-24T05:15:22;6.43;;;4.63;;
41623;SDS011;27319;50.306;18.926;2023-07-24T05:19:22;5.57;;;4.03;;
41623;SDS011;27319;50.306;18.926;2023-07-24T05:23:23;7.15;;;4.57;;
41623;SDS011;27319;50.306;18.926;2023-07-24T05:26:24;7.90;;;4.60;;
41623;SDS011;27319;50.306;18.926;2023-07-24T05:30:24;6.40;;;4.72;;
41623;SDS011;27319;50.306;18.926;2023-07-24T05:34:25;7.10;;;4.07;;
41623;SDS011;27319;50.306;18.926;2023-07-24T05:38:26;6.07;;;4.47;;
41623;SDS011;27319;50.306;18.926;2023-07-24T05:42:22;7.30;;;4.70;;
41623;SDS011;27319;50.306;18.926;2023-07-24T05:45:23;7.32;;;4.72;;
41623;SDS011;27319;50.306;18.926;2023-07-24T05:49:24;8.20;;;4.40;;
41623;SDS011;27319;50.306;18.926;2023-07-24T05:56:53;6.82;;;4.88;;
41623;SDS011;27319;50.306;18.926;2023-07-24T05:59:54;6.20;;;5.15;;
41623;SDS011;27319;50.306;18.926;2023-07-24T06:03:55;9.85;;;4.95;;
41623;SDS011;27319;50.306;18.926;2023-07-24T06:07:56;6.45;;;4.30;;
41623;SDS011;27319;50.306;18.926;2023-07-24T06:10:56;6.60;;;4.63;;
41623;SDS011;27319;50.306;18.926;2023-07-24T06:13:57;5.82;;;4.18;;
41623;SDS011;27319;50.306;18.926;2023-07-24T06:16:58;6.93;;;4.45;;
41623;SDS011;27319;50.306;18.926;2023-07-24T06:20:59;7.75;;;4.25;;
41623;SDS011;27319;50.306;18.926;2023-07-24T06:25:00;7.57;;;4.97;;
41623;SDS011;27319;50.306;18.926;2023-07-24T06:29:00;8.52;;;4.47;;
41623;SDS011;27319;50.306;18.926;2023-07-24T06:32:09;9.65;;;5.93;;
41623;SDS011;27319;50.306;18.926;2023-07-24T06:36:10;9.85;;;4.78;;
41623;SDS011;27319;50.306;18.926;2023-07-24T06:40:10;5.32;;;4.25;;
41623;SDS011;27319;50.306;18.926;2023-07-24T06:44:11;8.43;;;4.38;;
41623;SDS011;27319;50.306;18.926;2023-07-24T06:47:12;9.95;;;4.95;;
41623;SDS011;27319;50.306;18.926;2023-07-24T06:51:13;5.47;;;4.45;;
41623;SDS011;27319;50.306;18.926;2023-07-24T06:54:49;7.80;;;5.00;;
41623;SDS011;27319;50.306;18.926;2023-07-24T06:58:50;7.63;;;5.00;;
41623;SDS011;27319;50.306;18.926;2023-07-24T07:02:51;7.88;;;4.55;;
41623;SDS011;27319;50.306;18.926;2023-07-24T07:05:57;8.90;;;5.55;;
41623;SDS011;27319;50.306;18.926;2023-07-24T07:08:59;6.75;;;5.15;;
41623;SDS011;27319;50.306;18.926;2023-07-24T07:12:00;6.57;;;4.47;;
41623;SDS011;27319;50.306;18.926;2023-07-24T07:15:01;7.28;;;4.50;;
41623;SDS011;27319;50.306;18.926;2023-07-24T07:18:02;6.63;;;4.20;;
41623;SDS011;27319;50.306;18.926;2023-07-24T07:22:03;6.72;;;4.43;;
41623;SDS011;27319;50.306;18.926;2023-07-24T07:26:03;6.28;;;4.38;;
41623;SDS011;27319;50.306;18.926;2023-07-24T07:30:04;7.07;;;4.75;;
41623;SDS011;27319;50.306;18.926;2023-07-24T07:34:05;5.65;;;4.10;;
41623;SDS011;27319;50.306;18.926;2023-07-24T07:38:06;5.47;;;3.80;;
41623;SDS011;27319;50.306;18.926;2023-07-24T07:42:07;7.55;;;4.32;;
41623;SDS011;27319;50.306;18.926;2023-07-24T07:46:07;9.45;;;3.88;;
41623;SDS011;27319;50.306;18.926;2023-07-24T07:50:08;7.47;;;4.28;;
41623;SDS011;27319;50.306;18.926;2023-07-24T07:54:09;11.93;;;4.28;;
41623;SDS011;27319;50.306;18.926;2023-07-24T07:58:10;10.68;;;4.38;;
41623;SDS011;27319;50.306;18.926;2023-07-24T08:02:11;6.50;;;4.35;;
41623;SDS011;27319;50.306;18.926;2023-07-24T08:05:47;9.15;;;4.65;;
41623;SDS011;27319;50.306;18.926;2023-07-24T08:09:48;8.45;;;5.15;;
41623;SDS011;27319;50.306;18.926;2023-07-24T08:13:49;6.68;;;4.78;;
41623;SDS011;27319;50.306;18.926;2023-07-24T08:17:50;6.93;;;4.68;;
41623;SDS011;27319;50.306;18.926;2023-07-24T08:21:50;10.65;;;4.65;;
41623;SDS011;27319;50.306;18.926;2023-07-24T08:25:54;16.85;;;4.68;;
41623;SDS011;27319;50.306;18.926;2023-07-24T08:29:55;8.20;;;4.10;;
41623;SDS011;27319;50.306;18.926;2023-07-24T08:33:56;11.57;;;5.03;;
41623;SDS011;27319;50.306;18.926;2023-07-24T08:37:57;10.23;;;4.85;;
41623;SDS011;27319;50.306;18.926;2023-07-24T08:41:57;13.93;;;5.07;;
41623;SDS011;27319;50.306;18.926;2023-07-24T08:45:59;8.73;;;4.30;;
41623;SDS011;27319;50.306;18.926;2023-07-24T08:49:59;7.15;;;3.80;;
41623;SDS011;27319;50.306;18.926;2023-07-24T08:53:55;9.30;;;4.78;;
41623;SDS011;27319;50.306;18.926;2023-07-24T08:56:56;6.97;;;3.97;;
41623;SDS011;27319;50.306;18.926;2023-07-24T09:00:58;5.93;;;4.10;;
41623;SDS011;27319;50.306;18.926;2023-07-24T09:03:59;6.90;;;4.15;;
41623;SDS011;27319;50.306;18.926;2023-07-24T09:07:00;10.45;;;4.65;;
41623;SDS011;27319;50.306;18.926;2023-07-24T09:10:01;16.75;;;4.72;;
41623;SDS011;27319;50.306;18.926;2023-07-24T09:13:02;10.57;;;4.90;;
41623;SDS011;27319;50.306;18.926;2023-07-24T09:16:04;9.07;;;4.85;;
41623;SDS011;27319;50.306;18.926;2023-07-24T09:19:05;8.05;;;4.72;;
41623;SDS011;27319;50.306;18.926;2023-07-24T09:23:07;10.70;;;4.80;;
41623;SDS011;27319;50.306;18.926;2023-07-24T09:26:09;6.82;;;4.20;;
41623;SDS011;27319;50.306;18.926;2023-07-24T09:29:32;6.50;;;4.72;;
41623;SDS011;27319;50.306;18.926;2023-07-24T09:32:33;5.97;;;4.20;;
41623;SDS011;27319;50.306;18.926;2023-07-24T09:35:34;7.13;;;4.55;;
41623;SDS011;27319;50.306;18.926;2023-07-24T09:38:36;6.90;;;4.47;;
41623;SDS011;27319;50.306;18.926;2023-07-24T09:42:37;6.88;;;4.32;;
41623;SDS011;27319;50.306;18.926;2023-07-24T09:46:36;6.65;;;4.55;;
41623;SDS011;27319;50.306;18.926;2023-07-24T09:50:13;7.70;;;4.43;;
41623;SDS011;27319;50.306;18.926;2023-07-24T09:53:21;8.27;;;4.38;;
41623;SDS011;27319;50.306;18.926;2023-07-24T09:57:35;8.85;;;4.70;;
41623;SDS011;27319;50.306;18.926;2023-07-24T10:01:36;7.25;;;4.45;;
41623;SDS011;27319;50.306;18.926;2023-07-24T10:05:37;8.20;;;4.55;;
41623;SDS011;27319;50.306;18.926;2023-07-24T10:08:38;6.97;;;4.70;;
41623;SDS011;27319;50.306;18.926;2023-07-24T10:11:40;9.23;;;5.57;;
41623;SDS011;27319;50.306;18.926;2023-07-24T10:15:41;7.50;;;5.10;;
41623;SDS011;27319;50.306;18.926;2023-07-24T10:19:42;7.18;;;5.32;;
41623;SDS011;27319;50.306;18.926;2023-07-24T10:22:45;10.02;;;5.07;;
41623;SDS011;27319;50.306;18.926;2023-07-24T10:26:46;9.88;;;5.88;;
41623;SDS011;27319;50.306;18.926;2023-07-24T10:30:54;6.63;;;4.85;;
41623;SDS011;27319;50.306;18.926;2023-07-24T10:34:40;8.32;;;5.40;;
41623;SDS011;27319;50.306;18.926;2023-07-24T10:37:40;8.00;;;4.97;;
41623;SDS011;27319;50.306;18.926;2023-07-24T10:40:42;6.70;;;4.88;;
41623;SDS011;27319;50.306;18.926;2023-07-24T10:44:38;12.27;;;6.38;;
41623;SDS011;27319;50.306;18.926;2023-07-24T10:47:39;8.68;;;5.60;;
41623;SDS011;27319;50.306;18.926;2023-07-24T10:50:41;7.38;;;5.80;;
41623;SDS011;27319;50.306;18.926;2023-07-24T10:53:46;7.97;;;5.43;;
41623;SDS011;27319;50.306;18.926;2023-07-24T10:56:48;15.77;;;5.18;;
41623;SDS011;27319;50.306;18.926;2023-07-24T10:59:49;8.10;;;5.15;;
41623;SDS011;27319;50.306;18.926;2023-07-24T11:02:52;8.85;;;5.85;;
41623;SDS011;27319;50.306;18.926;2023-07-24T11:05:54;8.23;;;5.80;;
41623;SDS011;27319;50.306;18.926;2023-07-24T11:09:55;7.78;;;5.70;;
41623;SDS011;27319;50.306;18.926;2023-07-24T11:12:56;8.80;;;5.90;;
41623;SDS011;27319;50.306;18.926;2023-07-24T11:16:03;10.60;;;5.78;;
41623;SDS011;27319;50.306;18.926;2023-07-24T11:19:05;9.57;;;6.07;;
41623;SDS011;27319;50.306;18.926;2023-07-24T11:22:06;10.50;;;6.13;;
41623;SDS011;27319;50.306;18.926;2023-07-24T11:25:08;6.55;;;4.78;;
41623;SDS011;27319;50.306;18.926;2023-07-24T11:29:12;7.03;;;5.10;;
41623;SDS011;27319;50.306;18.926;2023-07-24T11:33:13;8.00;;;5.82;;
41623;SDS011;27319;50.306;18.926;2023-07-24T11:36:16;15.35;;;7.57;;
41623;SDS011;27319;50.306;18.926;2023-07-24T11:39:22;24.33;;;10.18;;
41623;SDS011;27319;50.306;18.926;2023-07-24T11:42:27;9.23;;;5.90;;
41623;SDS011;27319;50.306;18.926;2023-07-24T11:45:28;7.82;;;5.95;;
41623;SDS011;27319;50.306;18.926;2023-07-24T11:49:29;6.63;;;5.15;;
41623;SDS011;27319;50.306;18.926;2023-07-24T11:53:38;9.48;;;5.50;;
41623;SDS011;27319;50.306;18.926;2023-07-24T11:56:39;10.80;;;5.35;;
41623;SDS011;27319;50.306;18.926;2023-07-24T11:59:40;7.18;;;5.18;;
41623;SDS011;27319;50.306;18.926;2023-07-24T12:03:41;9.48;;;7.40;;
41623;SDS011;27319;50.306;18.926;2023-07-24T12:07:39;11.63;;;8.80;;
41623;SDS011;27319;50.306;18.926;2023-07-24T12:11:20;119.38;;;43.70;;
41623;SDS011;27319;50.306;18.926;2023-07-24T12:15:21;373.45;;;118.13;;
41623;SDS011;27319;50.306;18.926;2023-07-24T12:18:55;327.00;;;93.05;;
41623;SDS011;27319;50.306;18.926;2023-07-24T12:22:55;20.27;;;16.15;;
41623;SDS011;27319;50.306;18.926;2023-07-24T12:26:38;111.47;;;38.55;;
41623;SDS011;27319;50.306;18.926;2023-07-24T12:30:05;17.53;;;16.10;;
41623;SDS011;27319;50.306;18.926;2023-07-24T12:33:45;16.52;;;15.23;;
41623;SDS011;27319;50.306;18.926;2023-07-24T12:36:53;16.88;;;15.25;;
41623;SDS011;27319;50.306;18.926;2023-07-24T12:40:54;13.75;;;12.55;;
41623;SDS011;27319;50.306;18.926;2023-07-24T12:44:55;12.98;;;11.77;;
41623;SDS011;27319;50.306;18.926;2023-07-24T12:48:56;12.55;;;11.35;;
41623;SDS011;27319;50.306;18.926;2023-07-24T12:52:56;11.82;;;10.80;;
41623;SDS011;27319;50.306;18.926;2023-07-24T12:56:57;12.93;;;11.73;;
41623;SDS011;27319;50.306;18.926;2023-07-24T13:00:58;14.15;;;12.73;;
41623;SDS011;27319;50.306;18.926;2023-07-24T13:04:59;12.43;;;11.20;;
41623;SDS011;27319;50.306;18.926;2023-07-24T13:08:00;12.02;;;10.80;;
41623;SDS011;27319;50.306;18.926;2023-07-24T13:11:01;12.68;;;11.48;;
41623;SDS011;27319;50.306;18.926;2023-07-24T13:15:02;19.92;;;12.55;;
41623;SDS011;27319;50.306;18.926;2023-07-24T13:19:02;13.00;;;11.90;;
41623;SDS011;27319;50.306;18.926;2023-07-24T13:23:03;13.73;;;12.48;;
41623;SDS011;27319;50.306;18.926;2023-07-24T13:26:26;12.77;;;11.68;;
41623;SDS011;27319;50.306;18.926;2023-07-24T13:29:27;12.63;;;11.52;;
41623;SDS011;27319;50.306;18.926;2023-07-24T13:32:30;19.42;;;12.57;;
41623;SDS011;27319;50.306;18.926;2023-07-24T13:35:31;11.93;;;10.82;;
41623;SDS011;27319;50.306;18.926;2023-07-24T13:38:32;13.63;;;12.43;;
41623;SDS011;27319;50.306;18.926;2023-07-24T13:41:33;13.02;;;11.77;;
41623;SDS011;27319;50.306;18.926;2023-07-24T13:44:34;14.20;;;12.93;;
41623;SDS011;27319;50.306;18.926;2023-07-24T13:47:35;12.15;;;11.05;;
41623;SDS011;27319;50.306;18.926;2023-07-24T13:50:36;15.00;;;13.50;;
41623;SDS011;27319;50.306;18.926;2023-07-24T13:53:37;13.35;;;12.05;;
41623;SDS011;27319;50.306;18.926;2023-07-24T13:56:38;13.02;;;11.93;;
41623;SDS011;27319;50.306;18.926;2023-07-24T13:59:39;13.13;;;11.82;;
41623;SDS011;27319;50.306;18.926;2023-07-24T14:02:40;11.88;;;10.77;;
41623;SDS011;27319;50.306;18.926;2023-07-24T14:05:41;13.10;;;12.00;;
41623;SDS011;27319;50.306;18.926;2023-07-24T14:08:42;11.70;;;10.70;;
41623;SDS011;27319;50.306;18.926;2023-07-24T14:11:43;12.93;;;11.05;;
41623;SDS011;27319;50.306;18.926;2023-07-24T14:14:44;14.55;;;13.30;;
41623;SDS011;27319;50.306;18.926;2023-07-24T14:17:45;15.15;;;13.95;;
41623;SDS011;27319;50.306;18.926;2023-07-24T14:20:46;17.20;;;15.70;;
41623;SDS011;27319;50.306;18.926;2023-07-24T14:23:47;19.35;;;17.92;;
41623;SDS011;27319;50.306;18.926;2023-07-24T14:26:48;16.95;;;15.55;;
41623;SDS011;27319;50.306;18.926;2023-07-24T14:29:49;15.52;;;14.15;;
41623;SDS011;27319;50.306;18.926;2023-07-24T14:32:51;14.02;;;12.68;;
41623;SDS011;27319;50.306;18.926;2023-07-24T14:35:52;10.57;;;9.48;;
41623;SDS011;27319;50.306;18.926;2023-07-24T14:38:55;10.30;;;9.13;;
41623;SDS011;27319;50.306;18.926;2023-07-24T14:41:56;11.57;;;7.43;;
41623;SDS011;27319;50.306;18.926;2023-07-24T14:44:57;10.00;;;6.93;;
41623;SDS011;27319;50.306;18.926;2023-07-24T14:48:02;8.63;;;6.35;;
41623;SDS011;27319;50.306;18.926;2023-07-24T14:51:03;9.98;;;6.85;;
41623;SDS011;27319;50.306;18.926;2023-07-24T14:55:04;12.90;;;7.90;;
41623;SDS011;27319;50.306;18.926;2023-07-24T14:59:05;9.43;;;6.55;;
41623;SDS011;27319;50.306;18.926;2023-07-24T15:03:06;10.23;;;7.60;;
41623;SDS011;27319;50.306;18.926;2023-07-24T15:06:47;10.38;;;7.38;;
41623;SDS011;27319;50.306;18.926;2023-07-24T15:09:48;13.45;;;6.88;;
41623;SDS011;27319;50.306;18.926;2023-07-24T15:12:48;12.10;;;7.95;;
41623;SDS011;27319;50.306;18.926;2023-07-24T15:15:50;9.15;;;6.55;;
41623;SDS011;27319;50.306;18.926;2023-07-24T15:19:50;9.95;;;6.10;;
41623;SDS011;27319;50.306;18.926;2023-07-24T15:23:51;13.15;;;6.13;;
41623;SDS011;27319;50.306;18.926;2023-07-24T15:27:52;13.00;;;6.25;;
41623;SDS011;27319;50.306;18.926;2023-07-24T15:31:52;11.48;;;6.90;;
41623;SDS011;27319;50.306;18.926;2023-07-24T15:35:53;11.70;;;5.90;;
41623;SDS011;27319;50.306;18.926;2023-07-24T15:39:54;12.93;;;5.70;;
41623;SDS011;27319;50.306;18.926;2023-07-24T15:42:55;12.10;;;6.07;;
41623;SDS011;27319;50.306;18.926;2023-07-24T15:45:56;9.38;;;5.55;;
41623;SDS011;27319;50.306;18.926;2023-07-24T15:48:57;10.23;;;5.07;;
41623;SDS011;27319;50.306;18.926;2023-07-24T15:51:59;10.57;;;6.70;;
41623;SDS011;27319;50.306;18.926;2023-07-24T15:55:00;11.48;;;6.05;;
41623;SDS011;27319;50.306;18.926;2023-07-24T15:58:01;8.18;;;5.45;;
41623;SDS011;27319;50.306;18.926;2023-07-24T16:01:02;7.07;;;5.63;;
41623;SDS011;27319;50.306;18.926;2023-07-24T16:04:03;7.60;;;6.10;;
41623;SDS011;27319;50.306;18.926;2023-07-24T16:08:04;8.70;;;5.93;;
41623;SDS011;27319;50.306;18.926;2023-07-24T16:12:04;9.20;;;5.72;;
41623;SDS011;27319;50.306;18.926;2023-07-24T16:16:05;8.57;;;6.15;;
41623;SDS011;27319;50.306;18.926;2023-07-24T16:19:10;9.50;;;5.97;;
41623;SDS011;27319;50.306;18.926;2023-07-24T16:22:27;11.90;;;6.63;;
41623;SDS011;27319;50.306;18.926;2023-07-24T16:25:28;9.38;;;5.90;;
41623;SDS011;27319;50.306;18.926;2023-07-24T16:29:29;9.30;;;5.47;;
41623;SDS011;27319;50.306;18.926;2023-07-24T16:33:30;10.57;;;5.10;;
41623;SDS011;27319;50.306;18.926;2023-07-24T16:37:31;9.50;;;5.47;;
41623;SDS011;27319;50.306;18.926;2023-07-24T16:41:34;8.25;;;5.45;;
41623;SDS011;27319;50.306;18.926;2023-07-24T16:45:35;8.43;;;5.90;;
41623;SDS011;27319;50.306;18.926;2023-07-24T16:49:36;9.60;;;6.32;;
41623;SDS011;27319;50.306;18.926;2023-07-24T16:53:37;10.57;;;6.13;;
41623;SDS011;27319;50.306;18.926;2023-07-24T16:56:38;8.10;;;5.72;;
41623;SDS011;27319;50.306;18.926;2023-07-24T17:00:39;8.23;;;5.95;;
41623;SDS011;27319;50.306;18.926;2023-07-24T17:04:39;8.77;;;6.00;;
41623;SDS011;27319;50.306;18.926;2023-07-24T17:07:40;8.88;;;6.28;;
41623;SDS011;27319;50.306;18.926;2023-07-24T17:10:45;10.55;;;6.35;;
41623;SDS011;27319;50.306;18.926;2023-07-24T17:14:44;10.13;;;6.22;;
41623;SDS011;27319;50.306;18.926;2023-07-24T17:18:45;9.25;;;6.55;;
41623;SDS011;27319;50.306;18.926;2023-07-24T17:22:46;9.15;;;6.53;;
41623;SDS011;27319;50.306;18.926;2023-07-24T17:26:47;10.55;;;7.00;;
41623;SDS011;27319;50.306;18.926;2023-07-24T17:30:48;8.90;;;5.90;;
41623;SDS011;27319;50.306;18.926;2023-07-24T17:34:49;10.90;;;6.65;;
41623;SDS011;27319;50.306;18.926;2023-07-24T17:38:50;10.43;;;6.20;;
41623;SDS011;27319;50.306;18.926;2023-07-24T17:42:50;9.88;;;6.28;;
41623;SDS011;27319;50.306;18.926;2023-07-24T17:46:51;11.20;;;6.25;;
41623;SDS011;27319;50.306;18.926;2023-07-24T17:50:52;11.25;;;6.43;;
41623;SDS011;27319;50.306;18.926;2023-07-24T17:53:53;11.80;;;7.30;;
41623;SDS011;27319;50.306;18.926;2023-07-24T17:57:54;8.57;;;6.38;;
41623;SDS011;27319;50.306;18.926;2023-07-24T18:01:55;16.23;;;9.07;;
41623;SDS011;27319;50.306;18.926;2023-07-24T18:05:56;13.48;;;7.75;;
41623;SDS011;27319;50.306;18.926;2023-07-24T18:09:57;15.02;;;8.32;;
41623;SDS011;27319;50.306;18.926;2023-07-24T18:13:58;9.55;;;7.55;;
41623;SDS011;27319;50.306;18.926;2023-07-24T18:17:59;10.50;;;7.75;;
41623;SDS011;27319;50.306;18.926;2023-07-24T18:21:00;11.90;;;7.65;;
41623;SDS011;27319;50.306;18.926;2023-07-24T18:25:00;10.18;;;6.68;;
41623;SDS011;27319;50.306;18.926;2023-07-24T18:29:02;11.10;;;7.28;;
41623;SDS011;27319;50.306;18.926;2023-07-24T18:32:50;12.80;;;7.63;;
41623;SDS011;27319;50.306;18.926;2023-07-24T18:35:51;13.75;;;7.90;;
41623;SDS011;27319;50.306;18.926;2023-07-24T18:39:52;14.20;;;8.82;;
41623;SDS011;27319;50.306;18.926;2023-07-24T18:43:53;12.73;;;8.55;;
41623;SDS011;27319;50.306;18.926;2023-07-24T18:47:54;10.88;;;7.32;;
41623;SDS011;27319;50.306;18.926;2023-07-24T18:50:56;9.25;;;7.03;;
41623;SDS011;27319;50.306;18.926;2023-07-24T18:54:56;9.02;;;6.63;;
41623;SDS011;27319;50.306;18.926;2023-07-24T18:58:57;9.88;;;6.45;;
41623;SDS011;27319;50.306;18.926;2023-07-24T19:02:58;9.52;;;5.75;;
41623;SDS011;27319;50.306;18.926;2023-07-24T19:06:47;10.20;;;6.25;;
41623;SDS011;27319;50.306;18.926;2023-07-24T19:09:47;10.35;;;7.60;;
41623;SDS011;27319;50.306;18.926;2023-07-24T19:12:49;9.95;;;6.47;;
41623;SDS011;27319;50.306;18.926;2023-07-24T19:15:49;10.98;;;6.97;;
41623;SDS011;27319;50.306;18.926;2023-07-24T19:18:50;10.35;;;6.57;;
41623;SDS011;27319;50.306;18.926;2023-07-24T19:21:51;13.43;;;7.75;;
41623;SDS011;27319;50.306;18.926;2023-07-24T19:25:52;10.00;;;6.15;;
41623;SDS011;27319;50.306;18.926;2023-07-24T19:29:53;10.20;;;7.07;;
41623;SDS011;27319;50.306;18.926;2023-07-24T19:33:53;11.85;;;7.60;;
41623;SDS011;27319;50.306;18.926;2023-07-24T19:37:54;9.77;;;7.78;;
41623;SDS011;27319;50.306;18.926;2023-07-24T19:41:55;12.20;;;8.05;;
41623;SDS011;27319;50.306;18.926;2023-07-24T19:44:56;13.25;;;8.18;;
41623;SDS011;27319;50.306;18.926;2023-07-24T19:47:59;14.02;;;8.00;;
41623;SDS011;27319;50.306;18.926;2023-07-24T19:52:00;11.95;;;7.95;;
41623;SDS011;27319;50.306;18.926;2023-07-24T19:56:01;11.18;;;9.20;;
41623;SDS011;27319;50.306;18.926;2023-07-24T20:00:02;10.93;;;8.18;;
41623;SDS011;27319;50.306;18.926;2023-07-24T20:04:02;10.68;;;7.95;;
41623;SDS011;27319;50.306;18.926;2023-07-24T20:07:03;12.15;;;10.05;;
41623;SDS011;27319;50.306;18.926;2023-07-24T20:11:04;10.10;;;9.10;;
41623;SDS011;27319;50.306;18.926;2023-07-24T20:15:05;10.10;;;8.60;;
41623;SDS011;27319;50.306;18.926;2023-07-24T20:19:06;8.88;;;7.70;;
41623;SDS011;27319;50.306;18.926;2023-07-24T20:23:07;8.65;;;7.57;;
41623;SDS011;27319;50.306;18.926;2023-07-24T20:27:08;10.32;;;7.57;;
41623;SDS011;27319;50.306;18.926;2023-07-24T20:31:08;9.30;;;7.50;;
41623;SDS011;27319;50.306;18.926;2023-07-24T20:35:09;10.25;;;8.05;;
41623;SDS011;27319;50.306;18.926;2023-07-24T20:38:19;10.32;;;7.45;;
41623;SDS011;27319;50.306;18.926;2023-07-24T20:42:11;10.00;;;7.50;;
41623;SDS011;27319;50.306;18.926;2023-07-24T20:46:13;9.00;;;6.90;;
41623;SDS011;27319;50.306;18.926;2023-07-24T20:50:13;8.98;;;6.88;;
41623;SDS011;27319;50.306;18.926;2023-07-24T20:54:16;8.02;;;6.82;;
41623;SDS011;27319;50.306;18.926;2023-07-24T20:58:17;7.25;;;6.55;;
41623;SDS011;27319;50.306;18.926;2023-07-24T21:02:18;8.15;;;6.85;;
41623;SDS011;27319;50.306;18.926;2023-07-24T21:06:19;7.78;;;6.97;;
41623;SDS011;27319;50.306;18.926;2023-07-24T21:10:20;6.78;;;6.05;;